DIAP/ABJ METAR and TAF weather

Enter ICAO airport designator
Station Type Date Time Source
DIAP METAR 2022/09/28 18:10 UTC NOAA

DIAP 281810Z 18007KT 7000 SCT010 OVC024 24/24 Q1012 TEMPO 3000 DZRA


Station Type Date Time Source
DIAP Decoded METAR 2022/09/28 18:10 UTC NOAA

Abidjan, Cote d'Ivoire (DIAP) 05-15N 003-56W 8M
Sep 28, 2022 - 02:10 PM EDT / 2022.09.28 1810 UTC
Wind: from the S (180 degrees) at 8 MPH (7 KT):0
Visibility: 4 mile(s):0
Sky conditions: overcast
Temperature: 75 F (24 C)
Dew Point: 75 F (24 C)
Relative Humidity: 100%
Pressure (altimeter): 29.88 in. Hg (1012 hPa)
ob: DIAP 281810Z 18007KT 7000 SCT010 OVC024 24/24 Q1012 TEMPO 3000 DZRA
cycle: 18

Station Type Date Time Source
DIAP TAF 2022/09/28 18:56 UTC NOAA

TAF DIAP 281749Z 2818/2924 18010KT 7000 BKN010
TEMPO 2818/2824 4000 RA
BECMG 2901/2903 SCT012 BKN030 PROB30
TEMPO 2912/2918 4000 RA BKN012

Example: see airport list